Aviation Digital Data Service (ADDS)

Output produced by METARs form (1437 UTC 27 March 2017)
found at http://aviationweather.gov/adds/metars/
 
KMIV 271331Z 2714/2812 22008KT P6SM BKN035 
     TEMPO 2714/2716 6SM -SHRA BR BKN020 
     FM271700 23010KT P6SM BKN020 BKN200 
     FM272000 23006KT P6SM VCSH BKN050 
     FM280700 VRB02KT 1SM -SHRA BR OVC010